Lebanon Junction, Kentucky
Current Conditions -  °F | °C
As of 8:58 AM on Sunday 21 Dec 2014 (Local Time) from KFTK Reporting Station
Haze Haze  
Wind Chill: 26°   Ceiling: Unl
Heat Index: 26°   Visibility: 6mi
Dew Point: 24°   Wind: 3mph
Humidity: 92%   Direction: 60°ENE
Pressure: 30.27"   Gusts: NA
Location:  37.83°N, 85.73°W
Report Text: KFTK 211358Z AUTO 06003KT 6SM BR CLR M03/M04 A3027 RMK AO2 SLP262 T10321044
Loading
Personal Weather Stations






























Interactive Weather Map New forecast layout! Learn more

10-Day Weather Forecast

Advertisements
Track Severe Weather on mobile